createdAt,value
2018-10-09T00:01:52.542Z,101261.37
2018-10-09T00:04:39.628Z,101260.63
2018-10-09T00:07:28.189Z,101261.05
2018-10-09T00:10:16.343Z,101266.91
2018-10-09T00:13:03.878Z,101266.84
2018-10-09T00:18:58.775Z,101255.94
2018-10-09T00:21:47.681Z,101254.84
2018-10-09T00:24:36.204Z,101256.81
2018-10-09T00:27:23.585Z,101260.13
2018-10-09T00:30:14.057Z,101247.09
2018-10-09T00:33:04.488Z,101242.55
2018-10-09T00:35:52.399Z,101239.05
2018-10-09T00:38:40.010Z,101241.64
2018-10-09T00:41:28.010Z,101245.81
2018-10-09T00:44:15.472Z,101241.98
2018-10-09T00:50:09.652Z,101233.02
2018-10-09T00:52:57.430Z,101230.11
2018-10-09T00:55:45.993Z,101226.72
2018-10-09T00:58:33.646Z,101225.97
2018-10-09T01:01:21.232Z,101219.97
2018-10-09T01:04:09.509Z,101224.34
2018-10-09T01:06:58.163Z,101215.45
2018-10-09T01:09:46.092Z,101222.19
2018-10-09T01:12:33.482Z,101215.80
2018-10-09T01:15:33.450Z,101211.62
2018-10-09T01:18:20.764Z,101212.05
2018-10-09T01:24:15.689Z,101199.72
2018-10-09T01:27:06.605Z,101205.98
2018-10-09T01:29:53.974Z,101210.48
2018-10-09T01:32:43.250Z,101212.36
2018-10-09T01:35:30.544Z,101219.94
2018-10-09T01:38:19.012Z,101224.33
2018-10-09T01:41:07.017Z,101227.77
2018-10-09T01:43:55.050Z,101239.06
2018-10-09T01:46:43.361Z,101238.13
2018-10-09T01:49:32.975Z,101226.30
2018-10-09T01:52:21.148Z,101225.02
2018-10-09T01:58:18.398Z,101228.86
2018-10-09T02:01:06.005Z,101228.91
2018-10-09T02:03:53.868Z,101236.37
2018-10-09T02:06:41.795Z,101243.95
2018-10-09T02:09:38.753Z,101233.64
2018-10-09T02:12:26.504Z,101232.72
2018-10-09T02:15:14.363Z,101228.05
2018-10-09T02:18:03.449Z,101221.59
2018-10-09T02:20:51.192Z,101229.63
2018-10-09T02:23:38.330Z,101227.18
2018-10-09T02:26:26.217Z,101226.89
2018-10-09T02:29:13.974Z,101230.17
2018-10-09T02:32:03.771Z,101235.95
2018-10-09T02:34:51.293Z,101242.73
2018-10-09T02:37:38.867Z,101246.16
2018-10-09T02:40:25.835Z,101248.97
2018-10-09T02:43:13.712Z,101251.70
2018-10-09T02:46:01.349Z,101251.38
2018-10-09T02:48:49.221Z,101248.56
2018-10-09T02:51:36.868Z,101253.98
2018-10-09T02:54:24.502Z,101255.62
2018-10-09T02:57:12.238Z,101264.50
2018-10-09T03:00:00.039Z,101263.14
2018-10-09T03:02:48.136Z,101265.19
2018-10-09T03:05:35.395Z,101273.73
2018-10-09T03:08:22.713Z,101272.08
2018-10-09T03:11:10.649Z,101272.25
2018-10-09T03:17:06.051Z,101266.69
2018-10-09T03:19:53.122Z,101260.13
2018-10-09T03:22:40.444Z,101251.34
2018-10-09T03:25:28.153Z,101242.67
2018-10-09T03:28:15.624Z,101236.52
2018-10-09T03:31:04.296Z,101237.44
2018-10-09T03:33:52.265Z,101237.28
2018-10-09T03:36:42.577Z,101239.36
2018-10-09T03:39:29.550Z,101236.80
2018-10-09T03:42:17.599Z,101231.48
2018-10-09T03:45:04.999Z,101232.52
2018-10-09T03:50:59.515Z,101227.16
2018-10-09T03:54:02.145Z,101227.50
2018-10-09T03:56:49.382Z,101229.48
2018-10-09T03:59:36.526Z,101220.97
2018-10-09T04:02:23.634Z,101225.59
2018-10-09T04:05:11.358Z,101225.03
2018-10-09T04:07:58.643Z,101223.24
2018-10-09T04:10:45.964Z,101219.75
2018-10-09T04:13:33.344Z,101215.16
2018-10-09T04:16:28.389Z,101224.58
2018-10-09T04:19:15.807Z,101223.25
2018-10-09T04:22:03.170Z,101226.72
2018-10-09T04:24:50.288Z,101224.34
2018-10-09T04:27:37.908Z,101219.31
2018-10-09T04:30:32.603Z,101218.25
2018-10-09T04:36:34.113Z,101224.09
2018-10-09T04:39:21.473Z,101231.38
2018-10-09T04:45:15.625Z,101233.55
2018-10-09T04:51:09.242Z,101254.67
2018-10-09T04:54:14.344Z,101254.48
2018-10-09T04:57:03.871Z,101248.84
2018-10-09T04:59:51.331Z,101245.69
2018-10-09T05:02:38.589Z,101237.58
2018-10-09T05:05:26.037Z,101238.62
2018-10-09T05:08:13.457Z,101230.37
2018-10-09T05:11:01.288Z,101232.16
2018-10-09T05:13:50.364Z,101226.95
2018-10-09T05:16:37.811Z,101229.59
2018-10-09T05:19:24.925Z,101235.29
2018-10-09T05:25:19.098Z,101242.63
2018-10-09T05:28:14.132Z,101242.16
2018-10-09T05:31:01.920Z,101250.94
2018-10-09T05:33:49.259Z,101253.76
2018-10-09T05:36:36.559Z,101256.39
2018-10-09T05:39:24.018Z,101262.55
2018-10-09T05:42:13.597Z,101259.00
2018-10-09T05:45:01.043Z,101266.83
2018-10-09T05:47:56.319Z,101267.08
2018-10-09T05:53:50.118Z,101270.74
2018-10-09T06:02:54.927Z,101287.06
2018-10-09T06:05:45.408Z,101285.69
2018-10-09T06:08:32.942Z,101290.42
2018-10-09T06:11:20.400Z,101295.16
2018-10-09T06:14:22.831Z,101291.98
2018-10-09T06:17:10.885Z,101289.21
2018-10-09T06:20:13.916Z,101295.61
2018-10-09T06:23:01.491Z,101299.32
2018-10-09T06:25:59.334Z,101305.67
2018-10-09T06:28:46.962Z,101313.17
2018-10-09T06:31:34.367Z,101311.55
2018-10-09T06:34:24.133Z,101316.83
2018-10-09T06:37:11.390Z,101315.30
2018-10-09T06:40:06.684Z,101314.55
2018-10-09T06:42:54.232Z,101309.45
2018-10-09T06:45:50.675Z,101308.89
2018-10-09T06:48:38.056Z,101310.73
2018-10-09T06:51:25.521Z,101315.63
2018-10-09T06:54:28.091Z,101318.78
2018-10-09T06:57:15.108Z,101327.58
2018-10-09T07:00:03.252Z,101330.13
2018-10-09T07:06:02.289Z,101321.15
2018-10-09T07:08:49.559Z,101325.22
2018-10-09T07:11:37.073Z,101321.58
2018-10-09T07:17:45.766Z,101325.84
2018-10-09T07:20:33.294Z,101325.63
2018-10-09T07:23:20.496Z,101316.66
2018-10-09T07:26:07.421Z,101336.22
2018-10-09T07:28:54.909Z,101336.08
2018-10-09T07:31:42.529Z,101346.77
2018-10-09T07:34:29.991Z,101339.98
2018-10-09T07:37:17.396Z,101334.78
2018-10-09T07:40:04.999Z,101335.02
2018-10-09T07:42:52.492Z,101346.24
2018-10-09T07:45:41.051Z,101346.59
2018-10-09T07:48:30.967Z,101356.91
2018-10-09T07:54:24.925Z,101354.97
2018-10-09T07:57:12.083Z,101354.31
2018-10-09T07:59:59.305Z,101360.53
2018-10-09T08:02:46.500Z,101364.04
2018-10-09T08:05:34.143Z,101369.73
2018-10-09T08:08:21.704Z,101371.80
2018-10-09T08:11:11.080Z,101385.20
2018-10-09T08:17:04.949Z,101393.16
2018-10-09T08:19:53.975Z,101393.68
2018-10-09T08:22:41.502Z,101384.31
2018-10-09T08:28:34.818Z,101381.29
2018-10-09T08:34:29.494Z,101373.30
2018-10-09T08:40:43.390Z,101368.75
2018-10-09T08:43:32.927Z,101369.29
2018-10-09T08:46:23.296Z,101380.03
2018-10-09T08:49:09.814Z,101373.13
2018-10-09T08:51:57.734Z,101372.67
2018-10-09T08:54:45.044Z,101374.83
2018-10-09T08:57:32.739Z,101378.98
2018-10-09T09:00:19.908Z,101373.73
2018-10-09T09:03:07.573Z,101375.13
2018-10-09T09:05:55.101Z,101380.08
2018-10-09T09:08:43.542Z,101384.48
2018-10-09T09:11:31.415Z,101384.08
2018-10-09T09:14:26.164Z,101384.42
2018-10-09T09:17:14.280Z,101382.96
2018-10-09T09:26:15.082Z,101373.91
2018-10-09T09:29:03.699Z,101374.73
2018-10-09T09:31:53.284Z,101377.95
2018-10-09T09:34:56.556Z,101379.87
2018-10-09T09:37:46.090Z,101383.01
2018-10-09T09:40:36.210Z,101386.06
2018-10-09T09:43:23.534Z,101392.64
2018-10-09T09:46:18.254Z,101389.99
2018-10-09T09:49:05.381Z,101395.98
2018-10-09T09:51:52.734Z,101396.59
2018-10-09T09:54:40.458Z,101387.89
2018-10-09T09:57:28.431Z,101390.45
2018-10-09T10:00:16.007Z,101394.83
2018-10-09T10:03:03.615Z,101396.43
2018-10-09T10:05:51.040Z,101395.77
2018-10-09T10:08:38.477Z,101394.30
2018-10-09T10:11:41.292Z,101390.92
2018-10-09T10:17:38.306Z,101390.19
2018-10-09T10:23:34.792Z,101383.47
2018-10-09T10:26:24.210Z,101383.72
2018-10-09T10:29:26.752Z,101387.13
2018-10-09T10:32:14.375Z,101382.86
2018-10-09T10:35:02.245Z,101382.16
2018-10-09T10:37:50.371Z,101379.98
2018-10-09T10:40:37.860Z,101379.34
2018-10-09T10:46:42.083Z,101375.08
2018-10-09T10:49:42.596Z,101367.41
2018-10-09T10:52:33.314Z,101365.86
2018-10-09T10:55:20.939Z,101362.25
2018-10-09T10:58:08.793Z,101352.11
2018-10-09T11:00:56.196Z,101352.70
2018-10-09T11:03:43.674Z,101354.50
2018-10-09T11:06:31.490Z,101349.96
2018-10-09T11:09:19.851Z,101350.74
2018-10-09T11:12:07.000Z,101346.23
2018-10-09T11:14:54.386Z,101354.23
2018-10-09T11:17:43.101Z,101350.95
2018-10-09T11:23:52.739Z,101339.01
2018-10-09T11:26:40.340Z,101332.99
2018-10-09T11:29:29.630Z,101330.54
2018-10-09T11:35:24.439Z,101326.08
2018-10-09T11:38:12.194Z,101324.69
2018-10-09T11:40:59.450Z,101323.78
2018-10-09T11:46:53.430Z,101319.21
2018-10-09T11:49:51.576Z,101322.72
2018-10-09T11:52:38.980Z,101315.86
2018-10-09T11:55:29.859Z,101307.45
2018-10-09T11:58:17.247Z,101308.37
2018-10-09T12:04:13.349Z,101299.52
2018-10-09T12:07:00.869Z,101303.12
2018-10-09T12:09:49.552Z,101296.37
2018-10-09T12:12:37.112Z,101291.58
2018-10-09T12:15:25.162Z,101293.20
2018-10-09T12:18:15.847Z,101291.14
2018-10-09T12:24:09.757Z,101288.08
2018-10-09T12:30:06.434Z,101289.55
2018-10-09T12:32:53.639Z,101287.42
2018-10-09T12:35:40.947Z,101280.67
2018-10-09T12:38:29.706Z,101290.05
2018-10-09T12:41:17.120Z,101288.70
2018-10-09T12:44:07.219Z,101287.93
2018-10-09T12:46:54.354Z,101285.84
2018-10-09T12:49:42.539Z,101279.58
2018-10-09T12:52:30.686Z,101274.70
2018-10-09T12:55:19.388Z,101271.37
2018-10-09T12:58:08.183Z,101271.54
2018-10-09T13:00:56.072Z,101271.92
2018-10-09T13:03:43.480Z,101270.35
2018-10-09T13:06:31.241Z,101274.30
2018-10-09T13:09:18.519Z,101271.13
2018-10-09T13:12:06.595Z,101269.16
2018-10-09T13:14:55.047Z,101259.39
2018-10-09T13:17:44.101Z,101269.05
2018-10-09T13:20:39.153Z,101268.27
2018-10-09T13:23:31.542Z,101268.70
2018-10-09T13:29:30.903Z,101271.67
2018-10-09T13:32:19.597Z,101262.44
2018-10-09T13:35:07.050Z,101255.14
2018-10-09T13:38:02.588Z,101257.45
2018-10-09T13:40:50.190Z,101253.91
2018-10-09T13:43:40.558Z,101252.38
2018-10-09T13:46:29.141Z,101251.78
2018-10-09T13:49:16.350Z,101243.67
2018-10-09T13:52:04.691Z,101243.44
2018-10-09T14:01:14.806Z,101224.37
2018-10-09T14:04:04.414Z,101228.27
2018-10-09T14:07:03.641Z,101225.95
2018-10-09T14:09:50.998Z,101230.03
2018-10-09T14:12:52.591Z,101231.88
2018-10-09T14:15:47.469Z,101228.55
2018-10-09T14:18:42.959Z,101234.98
2018-10-09T14:21:30.357Z,101227.92
2018-10-09T14:24:22.815Z,101227.98
2018-10-09T14:27:10.088Z,101225.48
2018-10-09T14:30:05.027Z,101213.44
2018-10-09T14:33:09.086Z,101209.98
2018-10-09T14:35:56.861Z,101209.40
2018-10-09T14:38:44.915Z,101208.73
2018-10-09T14:41:33.161Z,101203.13
2018-10-09T14:44:20.801Z,101202.96
2018-10-09T14:47:08.694Z,101203.20
2018-10-09T14:53:10.832Z,101211.74
2018-10-09T14:55:58.062Z,101210.23
2018-10-09T15:01:59.260Z,101208.18
2018-10-09T15:04:47.056Z,101203.50
2018-10-09T15:07:35.679Z,101205.84
2018-10-09T15:10:24.102Z,101204.77
2018-10-09T15:13:12.989Z,101200.62
2018-10-09T15:16:00.022Z,101202.21
2018-10-09T15:22:00.151Z,101201.03
2018-10-09T15:27:57.360Z,101197.69
2018-10-09T15:30:45.240Z,101197.00
2018-10-09T15:36:52.051Z,101205.40
2018-10-09T15:39:46.781Z,101206.92
2018-10-09T15:42:38.020Z,101209.08
2018-10-09T15:45:27.525Z,101209.98
2018-10-09T15:48:15.283Z,101200.95
2018-10-09T15:51:04.924Z,101206.61
2018-10-09T15:53:53.105Z,101205.69
2018-10-09T15:56:40.329Z,101210.41
2018-10-09T15:59:27.754Z,101206.40
2018-10-09T16:02:17.718Z,101217.57
2018-10-09T16:05:12.486Z,101214.69
2018-10-09T16:07:59.850Z,101214.38
2018-10-09T16:14:01.046Z,101229.05
2018-10-09T16:16:48.378Z,101228.56
2018-10-09T16:19:35.841Z,101228.61
2018-10-09T16:22:23.266Z,101235.41
2018-10-09T16:25:10.343Z,101233.30
2018-10-09T16:27:57.553Z,101240.02
2018-10-09T16:30:45.125Z,101240.87
2018-10-09T16:36:44.700Z,101238.94
2018-10-09T16:39:32.124Z,101241.40
2018-10-09T16:42:19.447Z,101247.53
2018-10-09T16:45:06.905Z,101248.26
2018-10-09T16:47:54.253Z,101255.50
2018-10-09T16:50:41.867Z,101245.09
2018-10-09T16:53:29.540Z,101246.52
2018-10-09T16:56:16.727Z,101248.81
2018-10-09T16:59:04.439Z,101252.16
2018-10-09T17:01:51.777Z,101253.64
2018-10-09T17:04:39.185Z,101252.73
2018-10-09T17:07:26.358Z,101258.00
2018-10-09T17:13:27.810Z,101267.25
2018-10-09T17:16:30.074Z,101269.29
2018-10-09T17:19:33.017Z,101264.48
2018-10-09T17:22:20.455Z,101267.20
2018-10-09T17:25:09.928Z,101264.46
2018-10-09T17:27:57.742Z,101272.02
2018-10-09T17:33:51.049Z,101266.02
2018-10-09T17:36:38.072Z,101268.23
2018-10-09T17:39:26.513Z,101270.89
2018-10-09T17:42:14.826Z,101267.14
2018-10-09T17:45:02.336Z,101277.05
2018-10-09T17:47:49.764Z,101279.73
2018-10-09T17:50:37.056Z,101277.39
2018-10-09T17:53:24.301Z,101281.25
2018-10-09T17:56:12.547Z,101276.91
2018-10-09T18:02:22.222Z,101279.55
2018-10-09T18:05:09.441Z,101279.78
2018-10-09T18:11:18.481Z,101271.64
2018-10-09T18:14:08.129Z,101270.69
2018-10-09T18:16:56.354Z,101271.80
2018-10-09T18:19:43.911Z,101266.52
2018-10-09T18:25:37.676Z,101269.55
2018-10-09T18:31:34.244Z,101277.05
2018-10-09T18:37:27.813Z,101276.16
2018-10-09T18:40:31.000Z,101279.69
2018-10-09T18:43:18.753Z,101280.52
2018-10-09T18:46:08.872Z,101287.51
2018-10-09T18:52:05.416Z,101285.38
2018-10-09T18:54:53.019Z,101293.97
2018-10-09T19:00:55.119Z,101305.81
2018-10-09T19:03:44.680Z,101301.17
2018-10-09T19:09:38.599Z,101300.34
2018-10-09T19:12:41.351Z,101300.45
2018-10-09T19:15:31.036Z,101293.75
2018-10-09T19:18:19.073Z,101298.87
2018-10-09T19:21:08.432Z,101302.83
2018-10-09T19:30:12.047Z,101304.02
2018-10-09T19:33:00.302Z,101310.73
2018-10-09T19:38:58.331Z,101310.05
2018-10-09T19:41:45.582Z,101307.34
2018-10-09T19:44:34.263Z,101312.25
2018-10-09T19:47:21.836Z,101314.91
2018-10-09T19:50:13.342Z,101316.22
2018-10-09T19:53:01.306Z,101319.15
2018-10-09T19:55:56.019Z,101326.77
2018-10-09T20:01:51.883Z,101331.41
2018-10-09T20:07:45.358Z,101334.92
2018-10-09T20:10:33.688Z,101337.12
2018-10-09T20:13:21.621Z,101334.05
2018-10-09T20:16:09.401Z,101333.92
2018-10-09T20:18:56.705Z,101336.92
2018-10-09T20:21:44.032Z,101338.55
2018-10-09T20:33:50.490Z,101336.78
2018-10-09T20:36:38.295Z,101342.03
2018-10-09T20:39:25.817Z,101337.52
2018-10-09T20:42:12.990Z,101338.75
2018-10-09T20:45:00.623Z,101347.08
2018-10-09T20:47:48.325Z,101347.70
2018-10-09T20:53:45.996Z,101348.39
2018-10-09T20:56:33.642Z,101343.98
2018-10-09T20:59:20.902Z,101348.77
2018-10-09T21:05:14.357Z,101346.33
2018-10-09T21:11:08.295Z,101332.55
2018-10-09T21:13:55.622Z,101332.63
2018-10-09T21:16:43.042Z,101333.61
2018-10-09T21:19:30.697Z,101329.34
2018-10-09T21:22:18.860Z,101333.09
2018-10-09T21:28:17.507Z,101335.80
2018-10-09T21:31:05.645Z,101340.97
2018-10-09T21:33:55.073Z,101342.89
2018-10-09T21:36:46.341Z,101337.70
2018-10-09T21:42:40.375Z,101338.41
2018-10-09T21:48:38.871Z,101323.11
2018-10-09T21:51:31.465Z,101323.69
2018-10-09T21:54:19.320Z,101328.33
2018-10-09T21:57:06.795Z,101333.94
2018-10-09T21:59:55.576Z,101328.05
2018-10-09T22:12:14.308Z,101329.66
2018-10-09T22:18:09.882Z,101329.96
2018-10-09T22:24:16.220Z,101331.69
2018-10-09T22:30:13.474Z,101331.08
2018-10-09T22:33:17.487Z,101328.87
2018-10-09T22:36:05.312Z,101330.53
2018-10-09T22:38:55.034Z,101322.05
2018-10-09T22:44:49.141Z,101327.88
2018-10-09T22:47:36.673Z,101323.19
2018-10-09T22:50:24.561Z,101323.77
2018-10-09T22:53:12.235Z,101322.55
2018-10-09T22:55:59.979Z,101327.53
2018-10-09T22:58:47.375Z,101327.64
2018-10-09T23:01:34.654Z,101325.20
2018-10-09T23:04:22.372Z,101328.52
2018-10-09T23:10:15.995Z,101325.69
2018-10-09T23:13:03.721Z,101327.06
2018-10-09T23:15:53.703Z,101323.45
2018-10-09T23:18:41.061Z,101334.30
2018-10-09T23:21:28.738Z,101333.19
2018-10-09T23:24:16.367Z,101329.48
2018-10-09T23:27:08.689Z,101330.47
2018-10-09T23:29:56.234Z,101339.34
2018-10-09T23:32:43.660Z,101328.74
2018-10-09T23:35:31.694Z,101326.78
2018-10-09T23:38:19.354Z,101329.21
2018-10-09T23:41:09.665Z,101335.36
2018-10-09T23:50:18.730Z,101336.65
2018-10-09T23:53:10.357Z,101334.45
2018-10-09T23:56:07.143Z,101331.66
2018-10-09T23:58:55.205Z,101342.05
